sensor_id;sensor_type;location;lat;lon;timestamp;pressure;altitude;pressure_sealevel;temperature;humidity
48652;BME280;34442;52.362;-1.302;2023-11-21T00:00:30;100203.03;;;10.35;100.00
48652;BME280;34442;52.362;-1.302;2023-11-21T00:02:55;100208.00;;;10.38;100.00
48652;BME280;34442;52.362;-1.302;2023-11-21T00:05:21;100217.53;;;10.34;100.00
48652;BME280;34442;52.362;-1.302;2023-11-21T00:07:48;100214.41;;;10.37;100.00
48652;BME280;34442;52.362;-1.302;2023-11-21T00:10:14;100221.63;;;10.50;100.00
48652;BME280;34442;52.362;-1.302;2023-11-21T00:12:39;100222.44;;;10.44;100.00
48652;BME280;34442;52.362;-1.302;2023-11-21T00:15:07;100227.84;;;10.37;100.00
48652;BME280;34442;52.362;-1.302;2023-11-21T00:17:37;100232.19;;;10.38;100.00
48652;BME280;34442;52.362;-1.302;2023-11-21T00:20:03;100242.09;;;10.44;100.00
48652;BME280;34442;52.362;-1.302;2023-11-21T00:22:35;100238.13;;;10.60;100.00
48652;BME280;34442;52.362;-1.302;2023-11-21T00:25:01;100238.56;;;10.51;100.00
48652;BME280;34442;52.362;-1.302;2023-11-21T00:27:29;100245.59;;;10.58;100.00
48652;BME280;34442;52.362;-1.302;2023-11-21T00:29:54;100239.59;;;10.63;100.00
48652;BME280;34442;52.362;-1.302;2023-11-21T00:32:20;100242.69;;;10.53;100.00
48652;BME280;34442;52.362;-1.302;2023-11-21T00:34:45;100253.84;;;10.57;100.00
48652;BME280;34442;52.362;-1.302;2023-11-21T00:37:14;100252.22;;;10.49;100.00
48652;BME280;34442;52.362;-1.302;2023-11-21T00:39:39;100249.50;;;10.49;100.00
48652;BME280;34442;52.362;-1.302;2023-11-21T00:42:05;100253.47;;;10.40;100.00
48652;BME280;34442;52.362;-1.302;2023-11-21T00:44:30;100254.06;;;10.49;100.00
48652;BME280;34442;52.362;-1.302;2023-11-21T00:46:56;100257.19;;;10.46;100.00
48652;BME280;34442;52.362;-1.302;2023-11-21T00:49:21;100255.53;;;10.58;100.00
48652;BME280;34442;52.362;-1.302;2023-11-21T00:51:47;100266.69;;;10.55;100.00
48652;BME280;34442;52.362;-1.302;2023-11-21T00:54:12;100276.19;;;10.44;100.00
48652;BME280;34442;52.362;-1.302;2023-11-21T00:56:37;100272.66;;;10.63;100.00
48652;BME280;34442;52.362;-1.302;2023-11-21T00:59:03;100267.47;;;10.68;100.00
48652;BME280;34442;52.362;-1.302;2023-11-21T01:01:30;100278.19;;;10.82;100.00
48652;BME280;34442;52.362;-1.302;2023-11-21T01:03:55;100280.91;;;10.68;100.00
48652;BME280;34442;52.362;-1.302;2023-11-21T01:06:21;100290.25;;;10.66;100.00
48652;BME280;34442;52.362;-1.302;2023-11-21T01:08:46;100284.63;;;10.87;100.00
48652;BME280;34442;52.362;-1.302;2023-11-21T01:11:12;100291.44;;;10.83;100.00
48652;BME280;34442;52.362;-1.302;2023-11-21T01:13:40;100293.31;;;10.83;100.00
48652;BME280;34442;52.362;-1.302;2023-11-21T01:16:07;100304.28;;;10.81;100.00
48652;BME280;34442;52.362;-1.302;2023-11-21T01:18:32;100304.72;;;10.72;100.00
48652;BME280;34442;52.362;-1.302;2023-11-21T01:20:58;100308.22;;;10.72;100.00
48652;BME280;34442;52.362;-1.302;2023-11-21T01:23:25;100317.75;;;10.68;100.00
48652;BME280;34442;52.362;-1.302;2023-11-21T01:25:52;100318.59;;;10.55;100.00
48652;BME280;34442;52.362;-1.302;2023-11-21T01:28:18;100338.22;;;10.69;100.00
48652;BME280;34442;52.362;-1.302;2023-11-21T01:30:45;100330.56;;;10.53;100.00
48652;BME280;34442;52.362;-1.302;2023-11-21T01:33:11;100347.09;;;10.56;100.00
48652;BME280;34442;52.362;-1.302;2023-11-21T01:35:36;100341.13;;;10.34;100.00
48652;BME280;34442;52.362;-1.302;2023-11-21T01:38:01;100355.59;;;10.47;100.00
48652;BME280;34442;52.362;-1.302;2023-11-21T01:40:27;100358.50;;;10.38;100.00
48652;BME280;34442;52.362;-1.302;2023-11-21T01:42:54;100369.44;;;10.30;100.00
48652;BME280;34442;52.362;-1.302;2023-11-21T01:45:19;100373.38;;;10.41;100.00
48652;BME280;34442;52.362;-1.302;2023-11-21T01:47:45;100372.13;;;10.37;100.00
48652;BME280;34442;52.362;-1.302;2023-11-21T01:50:15;100373.09;;;10.23;100.00
48652;BME280;34442;52.362;-1.302;2023-11-21T01:52:42;100371.69;;;10.27;100.00
48652;BME280;34442;52.362;-1.302;2023-11-21T01:55:09;100372.31;;;10.49;100.00
48652;BME280;34442;52.362;-1.302;2023-11-21T01:57:35;100372.13;;;10.37;100.00
48652;BME280;34442;52.362;-1.302;2023-11-21T02:00:03;100385.34;;;10.25;100.00
48652;BME280;34442;52.362;-1.302;2023-11-21T02:02:44;100384.03;;;10.08;100.00
48652;BME280;34442;52.362;-1.302;2023-11-21T02:05:11;100378.69;;;10.21;100.00
48652;BME280;34442;52.362;-1.302;2023-11-21T02:07:38;100380.19;;;10.30;100.00
48652;BME280;34442;52.362;-1.302;2023-11-21T02:10:04;100394.47;;;10.37;100.00
48652;BME280;34442;52.362;-1.302;2023-11-21T02:12:30;100382.69;;;10.38;100.00
48652;BME280;34442;52.362;-1.302;2023-11-21T02:14:56;100398.59;;;10.47;100.00
48652;BME280;34442;52.362;-1.302;2023-11-21T02:17:21;100395.47;;;10.36;100.00
48652;BME280;34442;52.362;-1.302;2023-11-21T02:19:46;100407.66;;;10.32;100.00
48652;BME280;34442;52.362;-1.302;2023-11-21T02:22:17;100412.63;;;10.35;100.00
48652;BME280;34442;52.362;-1.302;2023-11-21T02:24:46;100412.84;;;10.40;100.00
48652;BME280;34442;52.362;-1.302;2023-11-21T02:27:13;100418.00;;;10.29;100.00
48652;BME280;34442;52.362;-1.302;2023-11-21T02:29:45;100419.03;;;10.28;100.00
48652;BME280;34442;52.362;-1.302;2023-11-21T02:32:11;100422.97;;;10.32;100.00
48652;BME280;34442;52.362;-1.302;2023-11-21T02:34:36;100429.59;;;10.42;100.00
48652;BME280;34442;52.362;-1.302;2023-11-21T02:37:03;100433.72;;;10.38;100.00
48652;BME280;34442;52.362;-1.302;2023-11-21T02:39:28;100439.72;;;10.34;100.00
48652;BME280;34442;52.362;-1.302;2023-11-21T02:41:54;100438.72;;;10.55;100.00
48652;BME280;34442;52.362;-1.302;2023-11-21T02:44:19;100433.34;;;10.61;100.00
48652;BME280;34442;52.362;-1.302;2023-11-21T02:46:44;100427.34;;;10.46;100.00
48652;BME280;34442;52.362;-1.302;2023-11-21T02:49:10;100437.03;;;10.40;100.00
48652;BME280;34442;52.362;-1.302;2023-11-21T02:51:36;100444.47;;;10.25;100.00
48652;BME280;34442;52.362;-1.302;2023-11-21T02:54:03;100449.44;;;10.35;100.00
48652;BME280;34442;52.362;-1.302;2023-11-21T02:56:32;100450.25;;;10.35;100.00
48652;BME280;34442;52.362;-1.302;2023-11-21T02:58:59;100458.75;;;10.52;100.00
48652;BME280;34442;52.362;-1.302;2023-11-21T03:01:25;100460.19;;;10.35;100.00
48652;BME280;34442;52.362;-1.302;2023-11-21T03:03:51;100476.72;;;10.38;100.00
48652;BME280;34442;52.362;-1.302;2023-11-21T03:06:18;100464.56;;;10.56;100.00
48652;BME280;34442;52.362;-1.302;2023-11-21T03:08:44;100471.06;;;10.20;100.00
48652;BME280;34442;52.362;-1.302;2023-11-21T03:11:09;100472.59;;;10.42;100.00
48652;BME280;34442;52.362;-1.302;2023-11-21T03:13:34;100465.78;;;10.33;100.00
48652;BME280;34442;52.362;-1.302;2023-11-21T03:16:00;100474.66;;;10.40;100.00
48652;BME280;34442;52.362;-1.302;2023-11-21T03:18:25;100471.41;;;10.58;100.00
48652;BME280;34442;52.362;-1.302;2023-11-21T03:20:52;100480.84;;;10.34;100.00
48652;BME280;34442;52.362;-1.302;2023-11-21T03:23:18;100482.06;;;10.32;100.00
48652;BME280;34442;52.362;-1.302;2023-11-21T03:25:43;100493.28;;;10.49;100.00
48652;BME280;34442;52.362;-1.302;2023-11-21T03:28:09;100495.31;;;10.40;100.00
48652;BME280;34442;52.362;-1.302;2023-11-21T03:30:34;100504.44;;;10.39;100.00
48652;BME280;34442;52.362;-1.302;2023-11-21T03:33:00;100520.56;;;10.39;100.00
48652;BME280;34442;52.362;-1.302;2023-11-21T03:35:25;100511.03;;;10.36;100.00
48652;BME280;34442;52.362;-1.302;2023-11-21T03:37:51;100503.59;;;10.38;100.00
48652;BME280;34442;52.362;-1.302;2023-11-21T03:40:17;100503.94;;;10.22;100.00
48652;BME280;34442;52.362;-1.302;2023-11-21T03:42:45;100503.38;;;10.33;100.00
48652;BME280;34442;52.362;-1.302;2023-11-21T03:45:10;100503.81;;;10.43;100.00
48652;BME280;34442;52.362;-1.302;2023-11-21T03:47:37;100507.31;;;10.37;100.00
48652;BME280;34442;52.362;-1.302;2023-11-21T03:50:03;100517.25;;;10.37;100.00
48652;BME280;34442;52.362;-1.302;2023-11-21T03:52:28;100518.50;;;10.41;100.00
48652;BME280;34442;52.362;-1.302;2023-11-21T03:54:54;100526.50;;;10.28;100.00
48652;BME280;34442;52.362;-1.302;2023-11-21T03:57:20;100527.28;;;10.22;100.00
48652;BME280;34442;52.362;-1.302;2023-11-21T03:59:46;100528.78;;;10.31;100.00
48652;BME280;34442;52.362;-1.302;2023-11-21T04:02:12;100535.09;;;10.10;100.00
48652;BME280;34442;52.362;-1.302;2023-11-21T04:04:37;100531.34;;;10.11;100.00
48652;BME280;34442;52.362;-1.302;2023-11-21T04:07:03;100534.00;;;9.98;100.00
48652;BME280;34442;52.362;-1.302;2023-11-21T04:09:29;100524.91;;;9.99;100.00
48652;BME280;34442;52.362;-1.302;2023-11-21T04:11:55;100522.69;;;10.15;100.00
48652;BME280;34442;52.362;-1.302;2023-11-21T04:14:20;100527.34;;;9.93;100.00
48652;BME280;34442;52.362;-1.302;2023-11-21T04:16:46;100534.84;;;10.05;100.00
48652;BME280;34442;52.362;-1.302;2023-11-21T04:19:11;100540.78;;;9.93;100.00
48652;BME280;34442;52.362;-1.302;2023-11-21T04:21:40;100539.31;;;9.91;100.00
48652;BME280;34442;52.362;-1.302;2023-11-21T04:24:06;100539.34;;;9.98;100.00
48652;BME280;34442;52.362;-1.302;2023-11-21T04:26:32;100542.66;;;10.00;100.00
48652;BME280;34442;52.362;-1.302;2023-11-21T04:28:57;100558.09;;;9.84;100.00
48652;BME280;34442;52.362;-1.302;2023-11-21T04:31:22;100555.31;;;10.06;100.00
48652;BME280;34442;52.362;-1.302;2023-11-21T04:33:48;100560.25;;;10.02;100.00
48652;BME280;34442;52.362;-1.302;2023-11-21T04:36:14;100567.09;;;10.11;100.00
48652;BME280;34442;52.362;-1.302;2023-11-21T04:38:39;100569.78;;;10.05;100.00
48652;BME280;34442;52.362;-1.302;2023-11-21T04:41:08;100574.88;;;10.00;100.00
48652;BME280;34442;52.362;-1.302;2023-11-21T04:43:34;100576.53;;;9.94;100.00
48652;BME280;34442;52.362;-1.302;2023-11-21T04:45:59;100575.66;;;9.87;100.00
48652;BME280;34442;52.362;-1.302;2023-11-21T04:48:25;100581.28;;;9.92;100.00
48652;BME280;34442;52.362;-1.302;2023-11-21T04:50:50;100578.91;;;9.76;100.00
48652;BME280;34442;52.362;-1.302;2023-11-21T04:53:17;100580.16;;;9.80;100.00
48652;BME280;34442;52.362;-1.302;2023-11-21T04:55:45;100580.25;;;9.93;100.00
48652;BME280;34442;52.362;-1.302;2023-11-21T04:58:11;100584.97;;;9.91;100.00
48652;BME280;34442;52.362;-1.302;2023-11-21T05:00:37;100586.22;;;9.88;100.00
48652;BME280;34442;52.362;-1.302;2023-11-21T05:03:03;100598.97;;;9.86;100.00
48652;BME280;34442;52.362;-1.302;2023-11-21T05:05:30;100594.28;;;9.95;100.00
48652;BME280;34442;52.362;-1.302;2023-11-21T05:07:55;100597.22;;;10.00;100.00
48652;BME280;34442;52.362;-1.302;2023-11-21T05:10:21;100601.91;;;9.91;100.00
48652;BME280;34442;52.362;-1.302;2023-11-21T05:12:47;100603.28;;;10.09;100.00
48652;BME280;34442;52.362;-1.302;2023-11-21T05:15:14;100613.91;;;9.95;100.00
48652;BME280;34442;52.362;-1.302;2023-11-21T05:17:40;100615.75;;;9.88;100.00
48652;BME280;34442;52.362;-1.302;2023-11-21T05:20:15;100619.19;;;10.10;100.00
48652;BME280;34442;52.362;-1.302;2023-11-21T05:22:45;100614.84;;;10.09;100.00
48652;BME280;34442;52.362;-1.302;2023-11-21T05:25:11;100625.50;;;9.96;100.00
48652;BME280;34442;52.362;-1.302;2023-11-21T05:27:37;100631.44;;;9.91;100.00
48652;BME280;34442;52.362;-1.302;2023-11-21T05:30:04;100638.06;;;9.89;100.00
48652;BME280;34442;52.362;-1.302;2023-11-21T05:32:31;100630.31;;;10.07;100.00
48652;BME280;34442;52.362;-1.302;2023-11-21T05:34:56;100647.13;;;9.60;100.00
48652;BME280;34442;52.362;-1.302;2023-11-21T05:37:22;100648.56;;;9.84;100.00
48652;BME280;34442;52.362;-1.302;2023-11-21T05:39:49;100641.94;;;9.86;100.00
48652;BME280;34442;52.362;-1.302;2023-11-21T05:42:14;100631.59;;;9.83;100.00
48652;BME280;34442;52.362;-1.302;2023-11-21T05:44:42;100638.94;;;9.96;100.00
48652;BME280;34442;52.362;-1.302;2023-11-21T05:47:08;100637.94;;;10.04;100.00
48652;BME280;34442;52.362;-1.302;2023-11-21T05:49:36;100642.25;;;9.98;100.00
48652;BME280;34442;52.362;-1.302;2023-11-21T05:52:02;100643.94;;;10.06;100.00
48652;BME280;34442;52.362;-1.302;2023-11-21T05:54:27;100650.66;;;9.88;100.00
48652;BME280;34442;52.362;-1.302;2023-11-21T05:56:53;100654.84;;;9.98;100.00
48652;BME280;34442;52.362;-1.302;2023-11-21T05:59:19;100653.28;;;10.10;100.00
48652;BME280;34442;52.362;-1.302;2023-11-21T06:01:45;100658.13;;;9.93;100.00
48652;BME280;34442;52.362;-1.302;2023-11-21T06:04:12;100670.88;;;9.84;100.00
48652;BME280;34442;52.362;-1.302;2023-11-21T06:06:38;100675.69;;;9.95;100.00
48652;BME280;34442;52.362;-1.302;2023-11-21T06:09:04;100675.00;;;9.87;100.00
48652;BME280;34442;52.362;-1.302;2023-11-21T06:11:31;100693.06;;;10.00;100.00
48652;BME280;34442;52.362;-1.302;2023-11-21T06:13:56;100687.97;;;9.55;100.00
48652;BME280;34442;52.362;-1.302;2023-11-21T06:16:23;100695.09;;;9.69;100.00
48652;BME280;34442;52.362;-1.302;2023-11-21T06:18:48;100693.91;;;9.51;100.00
48652;BME280;34442;52.362;-1.302;2023-11-21T06:21:14;100700.22;;;9.64;100.00
48652;BME280;34442;52.362;-1.302;2023-11-21T06:23:44;100706.94;;;9.75;100.00
48652;BME280;34442;52.362;-1.302;2023-11-21T06:26:10;100707.44;;;9.85;100.00
48652;BME280;34442;52.362;-1.302;2023-11-21T06:28:35;100714.47;;;9.65;100.00
48652;BME280;34442;52.362;-1.302;2023-11-21T06:31:03;100709.75;;;9.67;100.00
48652;BME280;34442;52.362;-1.302;2023-11-21T06:33:33;100710.03;;;10.28;100.00
48652;BME280;34442;52.362;-1.302;2023-11-21T06:35:59;100706.53;;;10.28;100.00
48652;BME280;34442;52.362;-1.302;2023-11-21T06:38:27;100716.69;;;10.32;100.00
48652;BME280;34442;52.362;-1.302;2023-11-21T06:40:55;100728.34;;;10.18;100.00
48652;BME280;34442;52.362;-1.302;2023-11-21T06:43:21;100731.16;;;10.31;100.00
48652;BME280;34442;52.362;-1.302;2023-11-21T06:45:47;100739.22;;;10.31;100.00
48652;BME280;34442;52.362;-1.302;2023-11-21T06:48:13;100747.19;;;9.97;100.00
48652;BME280;34442;52.362;-1.302;2023-11-21T06:50:41;100750.94;;;10.02;100.00
48652;BME280;34442;52.362;-1.302;2023-11-21T06:53:07;100750.94;;;10.02;100.00
48652;BME280;34442;52.362;-1.302;2023-11-21T06:55:32;100751.00;;;10.09;100.00
48652;BME280;34442;52.362;-1.302;2023-11-21T06:57:58;100761.47;;;9.76;100.00
48652;BME280;34442;52.362;-1.302;2023-11-21T07:00:25;100756.13;;;9.82;100.00
48652;BME280;34442;52.362;-1.302;2023-11-21T07:02:53;100759.66;;;9.83;100.00
48652;BME280;34442;52.362;-1.302;2023-11-21T07:05:18;100761.13;;;9.85;100.00
48652;BME280;34442;52.362;-1.302;2023-11-21T07:07:46;100749.56;;;9.85;100.00
48652;BME280;34442;52.362;-1.302;2023-11-21T07:10:16;100758.16;;;9.37;100.00
48652;BME280;34442;52.362;-1.302;2023-11-21T07:12:42;100762.19;;;9.12;100.00
48652;BME280;34442;52.362;-1.302;2023-11-21T07:15:08;100765.34;;;9.01;100.00
48652;BME280;34442;52.362;-1.302;2023-11-21T07:17:36;100773.22;;;9.02;100.00
48652;BME280;34442;52.362;-1.302;2023-11-21T07:20:02;100774.81;;;8.82;100.00
48652;BME280;34442;52.362;-1.302;2023-11-21T07:22:28;100780.28;;;9.61;100.00
48652;BME280;34442;52.362;-1.302;2023-11-21T07:24:56;100788.59;;;9.87;100.00
48652;BME280;34442;52.362;-1.302;2023-11-21T07:27:22;100792.25;;;9.22;100.00
48652;BME280;34442;52.362;-1.302;2023-11-21T07:29:47;100791.25;;;9.81;100.00
48652;BME280;34442;52.362;-1.302;2023-11-21T07:32:13;100796.16;;;9.77;100.00
48652;BME280;34442;52.362;-1.302;2023-11-21T07:34:40;100798.00;;;9.98;100.00
48652;BME280;34442;52.362;-1.302;2023-11-21T07:37:07;100801.06;;;9.74;100.00
48652;BME280;34442;52.362;-1.302;2023-11-21T07:39:32;100803.06;;;9.65;100.00
48652;BME280;34442;52.362;-1.302;2023-11-21T07:41:57;100800.00;;;9.89;100.00
48652;BME280;34442;52.362;-1.302;2023-11-21T07:44:23;100808.50;;;9.93;100.00
48652;BME280;34442;52.362;-1.302;2023-11-21T07:46:48;100809.31;;;9.51;100.00
48652;BME280;34442;52.362;-1.302;2023-11-21T07:49:14;100810.25;;;9.79;100.00
48652;BME280;34442;52.362;-1.302;2023-11-21T07:51:42;100819.16;;;9.65;100.00
48652;BME280;34442;52.362;-1.302;2023-11-21T07:54:07;100830.06;;;9.12;100.00
48652;BME280;34442;52.362;-1.302;2023-11-21T07:56:32;100827.34;;;9.42;100.00
48652;BME280;34442;52.362;-1.302;2023-11-21T07:58:58;100838.41;;;9.03;100.00
48652;BME280;34442;52.362;-1.302;2023-11-21T08:01:24;100847.47;;;9.02;100.00
48652;BME280;34442;52.362;-1.302;2023-11-21T08:03:49;100848.66;;;8.84;100.00
48652;BME280;34442;52.362;-1.302;2023-11-21T08:06:17;100853.09;;;8.92;100.00
48652;BME280;34442;52.362;-1.302;2023-11-21T08:08:42;100856.34;;;8.87;100.00
48652;BME280;34442;52.362;-1.302;2023-11-21T08:11:08;100857.06;;;8.96;100.00
48652;BME280;34442;52.362;-1.302;2023-11-21T08:13:35;100853.66;;;8.87;100.00
48652;BME280;34442;52.362;-1.302;2023-11-21T08:16:01;100862.75;;;9.01;100.00
48652;BME280;34442;52.362;-1.302;2023-11-21T08:18:30;100859.75;;;9.55;100.00
48652;BME280;34442;52.362;-1.302;2023-11-21T08:20:55;100866.53;;;9.07;100.00
48652;BME280;34442;52.362;-1.302;2023-11-21T08:23:22;100873.53;;;9.08;100.00
48652;BME280;34442;52.362;-1.302;2023-11-21T08:25:50;100882.16;;;9.03;100.00
48652;BME280;34442;52.362;-1.302;2023-11-21T08:28:16;100885.75;;;8.95;100.00
48652;BME280;34442;52.362;-1.302;2023-11-21T08:30:41;100884.91;;;9.39;100.00
48652;BME280;34442;52.362;-1.302;2023-11-21T08:33:07;100895.63;;;8.95;100.00
48652;BME280;34442;52.362;-1.302;2023-11-21T08:35:33;100907.69;;;9.14;100.00
48652;BME280;34442;52.362;-1.302;2023-11-21T08:37:59;100912.50;;;9.18;100.00
48652;BME280;34442;52.362;-1.302;2023-11-21T08:40:25;100920.97;;;9.81;100.00
48652;BME280;34442;52.362;-1.302;2023-11-21T08:42:51;100928.09;;;9.74;100.00
48652;BME280;34442;52.362;-1.302;2023-11-21T08:45:21;100923.53;;;9.89;100.00
48652;BME280;34442;52.362;-1.302;2023-11-21T08:47:47;100930.81;;;9.95;100.00
48652;BME280;34442;52.362;-1.302;2023-11-21T08:50:13;100940.72;;;10.10;100.00
48652;BME280;34442;52.362;-1.302;2023-11-21T08:52:39;100946.94;;;9.95;100.00
48652;BME280;34442;52.362;-1.302;2023-11-21T08:55:06;100951.91;;;10.13;100.00
48652;BME280;34442;52.362;-1.302;2023-11-21T08:57:35;100953.78;;;9.98;100.00
48652;BME280;34442;52.362;-1.302;2023-11-21T09:00:02;100956.34;;;9.70;100.00
48652;BME280;34442;52.362;-1.302;2023-11-21T09:02:28;100959.03;;;9.55;100.00
48652;BME280;34442;52.362;-1.302;2023-11-21T09:04:56;100960.31;;;9.44;100.00
48652;BME280;34442;52.362;-1.302;2023-11-21T09:07:22;100963.84;;;9.45;100.00
48652;BME280;34442;52.362;-1.302;2023-11-21T09:09:48;100964.97;;;9.51;100.00
48652;BME280;34442;52.362;-1.302;2023-11-21T09:12:14;100967.56;;;9.44;100.00
48652;BME280;34442;52.362;-1.302;2023-11-21T09:14:39;100971.81;;;9.68;100.00
48652;BME280;34442;52.362;-1.302;2023-11-21T09:17:05;100972.75;;;10.11;100.00
48652;BME280;34442;52.362;-1.302;2023-11-21T09:19:39;100976.16;;;10.20;100.00
48652;BME280;34442;52.362;-1.302;2023-11-21T09:22:04;100982.81;;;10.24;100.00
48652;BME280;34442;52.362;-1.302;2023-11-21T09:24:31;100982.69;;;10.26;100.00
48652;BME280;34442;52.362;-1.302;2023-11-21T09:26:57;100993.47;;;10.32;100.00
48652;BME280;34442;52.362;-1.302;2023-11-21T09:29:22;100988.63;;;9.91;100.00
48652;BME280;34442;52.362;-1.302;2023-11-21T09:31:47;100987.09;;;9.67;100.00
48652;BME280;34442;52.362;-1.302;2023-11-21T09:34:13;100978.56;;;9.64;100.00
48652;BME280;34442;52.362;-1.302;2023-11-21T09:36:38;100983.53;;;9.82;100.00
48652;BME280;34442;52.362;-1.302;2023-11-21T09:39:04;100983.91;;;9.79;100.00
48652;BME280;34442;52.362;-1.302;2023-11-21T09:41:57;101001.44;;;9.60;100.00
48652;BME280;34442;52.362;-1.302;2023-11-21T09:47:15;100998.16;;;9.50;100.00
48652;BME280;34442;52.362;-1.302;2023-11-21T09:49:43;100999.47;;;9.54;100.00
48652;BME280;34442;52.362;-1.302;2023-11-21T09:52:22;101007.91;;;9.80;100.00
48652;BME280;34442;52.362;-1.302;2023-11-21T09:54:50;101005.84;;;9.82;100.00
48652;BME280;34442;52.362;-1.302;2023-11-21T09:57:15;101012.63;;;9.78;100.00
48652;BME280;34442;52.362;-1.302;2023-11-21T09:59:42;101015.00;;;10.03;100.00
48652;BME280;34442;52.362;-1.302;2023-11-21T10:02:08;101019.75;;;9.86;100.00
48652;BME280;34442;52.362;-1.302;2023-11-21T10:04:38;101032.97;;;9.58;100.00
48652;BME280;34442;52.362;-1.302;2023-11-21T10:07:04;101034.50;;;9.75;100.00
48652;BME280;34442;52.362;-1.302;2023-11-21T10:09:36;101046.78;;;9.55;100.00
48652;BME280;34442;52.362;-1.302;2023-11-21T10:12:05;101061.34;;;9.75;100.00
48652;BME280;34442;52.362;-1.302;2023-11-21T10:14:35;101059.94;;;9.64;100.00
48652;BME280;34442;52.362;-1.302;2023-11-21T10:17:02;101072.81;;;9.69;100.00
48652;BME280;34442;52.362;-1.302;2023-11-21T10:19:29;101066.50;;;10.21;100.00
48652;BME280;34442;52.362;-1.302;2023-11-21T10:21:55;101066.97;;;9.95;100.00
48652;BME280;34442;52.362;-1.302;2023-11-21T10:24:25;101066.34;;;10.37;100.00
48652;BME280;34442;52.362;-1.302;2023-11-21T10:26:51;101076.44;;;10.21;100.00
48652;BME280;34442;52.362;-1.302;2023-11-21T10:29:19;101075.50;;;10.43;100.00
48652;BME280;34442;52.362;-1.302;2023-11-21T10:31:49;101077.63;;;10.03;100.00
48652;BME280;34442;52.362;-1.302;2023-11-21T10:34:16;101071.78;;;10.14;100.00
48652;BME280;34442;52.362;-1.302;2023-11-21T10:36:42;101081.53;;;10.30;100.00
48652;BME280;34442;52.362;-1.302;2023-11-21T10:39:08;101091.31;;;10.23;100.00
48652;BME280;34442;52.362;-1.302;2023-11-21T10:41:35;101092.66;;;10.27;100.00
48652;BME280;34442;52.362;-1.302;2023-11-21T10:44:01;101098.28;;;10.17;100.00
48652;BME280;34442;52.362;-1.302;2023-11-21T10:46:29;101095.03;;;10.22;100.00
48652;BME280;34442;52.362;-1.302;2023-11-21T10:48:56;101099.22;;;10.10;100.00
48652;BME280;34442;52.362;-1.302;2023-11-21T10:51:22;101106.97;;;10.19;100.00
48652;BME280;34442;52.362;-1.302;2023-11-21T10:53:51;101104.44;;;10.26;100.00
48652;BME280;34442;52.362;-1.302;2023-11-21T10:56:18;101105.16;;;10.35;100.00
48652;BME280;34442;52.362;-1.302;2023-11-21T10:58:48;101113.38;;;10.04;100.00
48652;BME280;34442;52.362;-1.302;2023-11-21T11:01:14;101115.34;;;10.10;100.00
48652;BME280;34442;52.362;-1.302;2023-11-21T11:03:44;101118.06;;;10.25;100.00
48652;BME280;34442;52.362;-1.302;2023-11-21T11:06:09;101117.56;;;10.21;100.00
48652;BME280;34442;52.362;-1.302;2023-11-21T11:08:37;101128.41;;;10.42;100.00
48652;BME280;34442;52.362;-1.302;2023-11-21T11:11:05;101119.31;;;10.43;100.00
48652;BME280;34442;52.362;-1.302;2023-11-21T11:13:31;101118.59;;;10.50;100.00
48652;BME280;34442;52.362;-1.302;2023-11-21T11:16:01;101118.38;;;10.51;100.00
48652;BME280;34442;52.362;-1.302;2023-11-21T11:18:30;101124.59;;;10.66;100.00
48652;BME280;34442;52.362;-1.302;2023-11-21T11:24:10;101148.59;;;10.68;100.00
48652;BME280;34442;52.362;-1.302;2023-11-21T11:26:47;101140.09;;;10.50;100.00
48652;BME280;34442;52.362;-1.302;2023-11-21T11:35:01;101151.28;;;10.09;100.00
48652;BME280;34442;52.362;-1.302;2023-11-21T11:37:29;101148.78;;;10.22;100.00
48652;BME280;34442;52.362;-1.302;2023-11-21T11:39:54;101147.59;;;10.54;100.00
48652;BME280;34442;52.362;-1.302;2023-11-21T11:42:21;101155.94;;;10.59;100.00
48652;BME280;34442;52.362;-1.302;2023-11-21T11:44:49;101159.19;;;10.40;100.00
48652;BME280;34442;52.362;-1.302;2023-11-21T11:47:29;101161.50;;;10.43;100.00
48652;BME280;34442;52.362;-1.302;2023-11-21T11:50:02;101169.06;;;10.69;100.00
48652;BME280;34442;52.362;-1.302;2023-11-21T11:52:49;101182.81;;;10.44;100.00
48652;BME280;34442;52.362;-1.302;2023-11-21T11:55:17;101187.28;;;10.37;100.00
48652;BME280;34442;52.362;-1.302;2023-11-21T11:57:53;101187.53;;;10.28;100.00
48652;BME280;34442;52.362;-1.302;2023-11-21T12:00:23;101205.34;;;10.58;100.00
48652;BME280;34442;52.362;-1.302;2023-11-21T12:03:03;101200.16;;;10.27;100.00
48652;BME280;34442;52.362;-1.302;2023-11-21T12:05:30;101199.69;;;10.38;100.00
48652;BME280;34442;52.362;-1.302;2023-11-21T12:08:07;101211.84;;;10.34;100.00
48652;BME280;34442;52.362;-1.302;2023-11-21T12:10:34;101219.63;;;10.29;100.00
48652;BME280;34442;52.362;-1.302;2023-11-21T12:13:02;101211.47;;;10.37;100.00
48652;BME280;34442;52.362;-1.302;2023-11-21T12:15:28;101225.88;;;10.22;100.00
48652;BME280;34442;52.362;-1.302;2023-11-21T12:17:55;101228.72;;;10.05;100.00
48652;BME280;34442;52.362;-1.302;2023-11-21T12:20:22;101230.09;;;10.39;100.00
48652;BME280;34442;52.362;-1.302;2023-11-21T12:22:55;101224.91;;;10.37;100.00
48652;BME280;34442;52.362;-1.302;2023-11-21T12:25:25;101221.41;;;10.37;100.00
48652;BME280;34442;52.362;-1.302;2023-11-21T12:27:54;101222.38;;;10.36;100.00
48652;BME280;34442;52.362;-1.302;2023-11-21T12:30:25;101225.81;;;10.44;100.00
48652;BME280;34442;52.362;-1.302;2023-11-21T12:32:54;101235.00;;;10.50;100.00
48652;BME280;34442;52.362;-1.302;2023-11-21T12:35:22;101229.09;;;10.55;100.00
48652;BME280;34442;52.362;-1.302;2023-11-21T12:37:51;101233.59;;;10.84;100.00
48652;BME280;34442;52.362;-1.302;2023-11-21T12:40:17;101232.69;;;10.47;100.00
48652;BME280;34442;52.362;-1.302;2023-11-21T12:42:45;101222.38;;;10.65;100.00